createdAt,value
2023-01-02T00:03:33.795Z,1.00
2023-01-02T00:06:05.296Z,1.10
2023-01-02T00:08:32.368Z,0.94
2023-01-02T00:10:59.265Z,0.95
2023-01-02T00:13:26.391Z,0.97
2023-01-02T00:15:53.255Z,0.97
2023-01-02T00:18:20.245Z,1.00
2023-01-02T00:20:47.048Z,1.01
2023-01-02T00:23:13.847Z,0.99
2023-01-02T00:25:41.406Z,0.97
2023-01-02T00:28:08.314Z,1.24
2023-01-02T00:30:38.952Z,1.12
2023-01-02T00:33:06.764Z,1.29
2023-01-02T00:35:33.779Z,1.17
2023-01-02T00:38:00.538Z,1.08
2023-01-02T00:40:27.393Z,1.07
2023-01-02T00:42:54.146Z,1.03
2023-01-02T00:45:20.944Z,1.10
2023-01-02T00:47:47.690Z,1.09
2023-01-02T00:50:14.518Z,1.34
2023-01-02T00:52:41.243Z,1.46
2023-01-02T00:55:08.508Z,1.31
2023-01-02T00:57:35.265Z,1.28
2023-01-02T01:00:02.345Z,1.42
2023-01-02T01:02:29.255Z,1.31
2023-01-02T01:04:56.286Z,1.24
2023-01-02T01:07:23.038Z,1.32
2023-01-02T01:09:49.808Z,1.22
2023-01-02T01:12:16.602Z,1.24
2023-01-02T01:14:44.181Z,1.27
2023-01-02T01:17:11.191Z,1.24
2023-01-02T01:19:37.975Z,1.25
2023-01-02T01:22:04.684Z,1.27
2023-01-02T01:24:31.522Z,1.20
2023-01-02T01:26:58.397Z,1.23
2023-01-02T01:29:25.213Z,1.55
2023-01-02T01:31:52.044Z,1.41
2023-01-02T01:34:18.829Z,1.37
2023-01-02T01:36:45.626Z,1.34
2023-01-02T01:39:12.450Z,1.36
2023-01-02T01:41:39.269Z,1.37
2023-01-02T01:44:45.167Z,1.42
2023-01-02T01:47:36.797Z,1.38
2023-01-02T01:50:29.673Z,1.53
2023-01-02T01:53:05.652Z,1.35
2023-01-02T01:55:39.046Z,1.30
2023-01-02T01:58:12.934Z,1.22
2023-01-02T02:00:42.035Z,1.12
2023-01-02T02:03:17.276Z,1.11
2023-01-02T02:05:45.587Z,1.20
2023-01-02T02:08:32.168Z,1.19
2023-01-02T02:11:00.415Z,1.14
2023-01-02T02:13:27.367Z,1.26
2023-01-02T02:16:15.462Z,1.41
2023-01-02T02:18:56.738Z,1.33
2023-01-02T02:21:48.159Z,1.59
2023-01-02T02:24:33.384Z,1.55
2023-01-02T02:27:04.669Z,1.51
2023-01-02T02:30:03.444Z,1.40
2023-01-02T02:33:04.494Z,1.35
2023-01-02T02:35:49.885Z,1.34
2023-01-02T02:38:36.365Z,1.25
2023-01-02T02:41:18.072Z,1.24
2023-01-02T02:44:00.770Z,1.22
2023-01-02T02:46:45.969Z,1.26
2023-01-02T02:50:09.820Z,1.17
2023-01-02T02:52:49.034Z,1.19
2023-01-02T02:55:22.245Z,1.32
2023-01-02T02:57:51.918Z,1.26
2023-01-02T03:00:22.570Z,1.24
2023-01-02T03:02:49.416Z,1.31
2023-01-02T03:05:30.398Z,1.28
2023-01-02T03:08:16.095Z,1.39
2023-01-02T03:11:00.162Z,1.37
2023-01-02T03:13:26.859Z,1.33
2023-01-02T03:16:16.396Z,1.35
2023-01-02T03:18:49.938Z,1.49
2023-01-02T03:21:31.769Z,1.57
2023-01-02T03:24:03.821Z,1.45
2023-01-02T03:26:33.636Z,1.39
2023-01-02T03:29:08.639Z,1.40
2023-01-02T03:31:40.301Z,1.47
2023-01-02T03:34:21.624Z,1.61
2023-01-02T03:36:53.885Z,1.59
2023-01-02T03:39:27.068Z,1.57
2023-01-02T03:41:57.150Z,1.57
2023-01-02T03:44:28.506Z,1.49
2023-01-02T03:47:32.620Z,1.45
2023-01-02T03:50:03.952Z,1.39
2023-01-02T03:52:30.913Z,1.39
2023-01-02T03:55:00.671Z,1.38
2023-01-02T03:57:57.544Z,1.40
2023-01-02T04:00:41.621Z,1.32
2023-01-02T04:03:22.058Z,1.41
2023-01-02T04:06:00.376Z,1.37
2023-01-02T04:08:38.007Z,1.51
2023-01-02T04:11:06.780Z,1.58
2023-01-02T04:13:39.874Z,1.62
2023-01-02T04:16:11.273Z,1.55
2023-01-02T04:18:47.102Z,1.55
2023-01-02T04:21:17.948Z,1.54
2023-01-02T04:24:24.391Z,1.59
2023-01-02T04:27:04.062Z,1.57
2023-01-02T04:29:31.451Z,1.68
2023-01-02T04:32:27.585Z,1.80
2023-01-02T04:34:55.777Z,1.89
2023-01-02T04:37:35.473Z,1.80
2023-01-02T04:40:21.118Z,1.78
2023-01-02T04:42:47.916Z,1.96
2023-01-02T04:45:14.793Z,1.86
2023-01-02T04:47:41.759Z,1.78
2023-01-02T04:50:09.809Z,1.87
2023-01-02T04:52:37.302Z,1.81
2023-01-02T04:55:06.070Z,2.06
2023-01-02T04:57:32.774Z,1.93
2023-01-02T04:59:59.512Z,1.84
2023-01-02T05:02:27.981Z,2.06
2023-01-02T05:04:54.807Z,1.93
2023-01-02T05:07:21.531Z,1.94
2023-01-02T05:09:48.272Z,2.09
2023-01-02T05:12:15.010Z,1.98
2023-01-02T05:14:41.790Z,1.90
2023-01-02T05:17:08.535Z,2.13
2023-01-02T05:19:35.638Z,2.05
2023-01-02T05:22:21.083Z,2.08
2023-01-02T05:24:47.774Z,2.33
2023-01-02T05:27:14.496Z,2.16
2023-01-02T05:29:41.332Z,2.07
2023-01-02T05:32:08.096Z,2.09
2023-01-02T05:34:34.830Z,2.03
2023-01-02T05:37:01.575Z,2.04
2023-01-02T05:39:28.249Z,2.11
2023-01-02T05:41:55.131Z,2.06
2023-01-02T05:44:21.903Z,2.17
2023-01-02T05:46:48.685Z,2.06
2023-01-02T05:49:15.519Z,2.09
2023-01-02T05:51:42.252Z,2.12
2023-01-02T05:54:09.220Z,1.96
2023-01-02T05:56:36.078Z,2.11
2023-01-02T05:59:08.057Z,2.20
2023-01-02T06:01:35.317Z,2.23
2023-01-02T06:04:02.548Z,2.29
2023-01-02T06:06:47.751Z,2.19
2023-01-02T06:09:15.964Z,2.13
2023-01-02T06:11:43.228Z,2.05
2023-01-02T06:14:12.809Z,2.34
2023-01-02T06:16:40.252Z,2.48
2023-01-02T06:19:07.596Z,2.30
2023-01-02T06:21:34.734Z,2.29
2023-01-02T06:24:01.561Z,2.24
2023-01-02T06:26:34.653Z,2.17
2023-01-02T06:29:02.471Z,2.26
2023-01-02T06:31:29.906Z,2.29
2023-01-02T06:34:01.520Z,2.24
2023-01-02T06:36:34.687Z,2.31
2023-01-02T06:39:02.063Z,2.37
2023-01-02T06:41:28.932Z,2.39
2023-01-02T06:43:55.829Z,2.35
2023-01-02T06:46:23.871Z,2.57
2023-01-02T06:48:51.099Z,2.52
2023-01-02T06:51:20.679Z,2.43
2023-01-02T06:53:47.702Z,2.34
2023-01-02T06:56:17.063Z,2.40
2023-01-02T06:58:44.204Z,2.38
2023-01-02T07:01:14.412Z,2.41
2023-01-02T07:03:41.859Z,2.61
2023-01-02T07:06:14.783Z,2.48
2023-01-02T07:08:43.466Z,2.61
2023-01-02T07:11:22.585Z,2.62
2023-01-02T07:13:52.902Z,2.53
2023-01-02T07:16:21.401Z,2.52
2023-01-02T07:18:48.755Z,2.51
2023-01-02T07:21:18.231Z,2.55
2023-01-02T07:23:45.128Z,2.60
2023-01-02T07:26:12.641Z,2.65
2023-01-02T07:28:39.618Z,2.53
2023-01-02T07:31:09.319Z,2.67
2023-01-02T07:33:36.245Z,2.66
2023-01-02T07:36:15.394Z,2.73
2023-01-02T07:38:42.139Z,2.51
2023-01-02T07:41:16.864Z,2.83
2023-01-02T07:43:45.067Z,2.91
2023-01-02T07:46:13.205Z,3.09
2023-01-02T07:48:40.073Z,3.04
2023-01-02T07:51:08.120Z,2.96
2023-01-02T07:53:35.671Z,2.96
2023-01-02T07:56:03.481Z,2.94
2023-01-02T07:58:31.098Z,2.99
2023-01-02T08:01:05.117Z,3.18
2023-01-02T08:03:32.907Z,3.14
2023-01-02T08:06:04.987Z,3.12
2023-01-02T08:08:31.851Z,3.13
2023-01-02T08:10:58.646Z,3.06
2023-01-02T08:13:25.361Z,3.09
2023-01-02T08:15:52.177Z,2.87
2023-01-02T08:18:18.878Z,3.27
2023-01-02T08:20:45.649Z,3.45
2023-01-02T08:23:12.555Z,3.37
2023-01-02T08:25:39.316Z,3.58
2023-01-02T08:28:06.128Z,3.52
2023-01-02T08:30:32.913Z,3.46
2023-01-02T08:33:01.149Z,3.36
2023-01-02T08:35:37.901Z,3.50
2023-01-02T08:38:05.501Z,3.82
2023-01-02T08:40:32.269Z,3.72
2023-01-02T08:42:59.055Z,3.61
2023-01-02T08:45:25.828Z,3.58
2023-01-02T08:47:52.808Z,3.80
2023-01-02T08:50:19.813Z,3.89
2023-01-02T08:52:46.531Z,3.69
2023-01-02T08:55:13.571Z,3.73
2023-01-02T08:57:40.477Z,3.38
2023-01-02T09:00:07.866Z,3.67
2023-01-02T09:02:35.770Z,3.72
2023-01-02T09:05:02.682Z,3.74
2023-01-02T09:07:32.531Z,3.80
2023-01-02T09:09:59.856Z,3.81
2023-01-02T09:12:26.865Z,3.92
2023-01-02T09:14:53.594Z,3.99
2023-01-02T09:17:20.362Z,4.07
2023-01-02T09:19:47.268Z,3.96
2023-01-02T09:22:14.070Z,4.04
2023-01-02T09:24:41.815Z,4.09
2023-01-02T09:27:08.661Z,4.05
2023-01-02T09:29:35.412Z,4.07
2023-01-02T09:32:02.148Z,3.99
2023-01-02T09:34:28.985Z,3.85
2023-01-02T09:36:55.738Z,4.05
2023-01-02T09:39:26.948Z,4.36
2023-01-02T09:42:00.410Z,4.12
2023-01-02T09:44:33.568Z,4.10
2023-01-02T09:47:12.408Z,4.13
2023-01-02T09:49:49.953Z,4.15
2023-01-02T09:52:19.886Z,4.23
2023-01-02T09:54:46.769Z,4.13
2023-01-02T09:57:28.980Z,4.21
2023-01-02T10:00:01.765Z,4.25
2023-01-02T10:03:08.543Z,4.37
2023-01-02T10:05:47.508Z,4.33
2023-01-02T10:08:42.522Z,4.41
2023-01-02T10:11:28.061Z,4.33
2023-01-02T10:16:55.104Z,4.19
2023-01-02T10:19:39.994Z,4.29
2023-01-02T10:22:10.076Z,4.25
2023-01-02T10:24:40.388Z,4.31
2023-01-02T10:27:13.531Z,4.36
2023-01-02T10:29:45.762Z,4.39
2023-01-02T10:32:20.741Z,4.30
2023-01-02T10:35:03.514Z,4.36
2023-01-02T10:37:30.339Z,4.43
2023-01-02T10:39:58.039Z,4.39
2023-01-02T10:42:25.598Z,4.30
2023-01-02T10:44:52.645Z,4.31
2023-01-02T10:47:19.901Z,4.38
2023-01-02T10:49:50.138Z,4.38
2023-01-02T10:52:43.675Z,4.45
2023-01-02T10:55:10.395Z,4.42
2023-01-02T10:57:51.583Z,4.48
2023-01-02T11:00:22.591Z,4.47
2023-01-02T11:02:57.750Z,4.56
2023-01-02T11:05:27.817Z,4.41
2023-01-02T11:07:55.410Z,4.52
2023-01-02T11:10:40.441Z,4.50
2023-01-02T11:13:16.009Z,4.47
2023-01-02T11:15:57.039Z,4.49
2023-01-02T11:18:30.977Z,4.51
2023-01-02T11:21:04.457Z,4.32
2023-01-02T11:23:57.141Z,4.51
2023-01-02T11:26:26.346Z,4.56
2023-01-02T11:28:55.797Z,4.57
2023-01-02T11:31:23.727Z,4.68
2023-01-02T11:33:50.523Z,4.63
2023-01-02T11:36:20.037Z,4.70
2023-01-02T11:38:51.903Z,4.68
2023-01-02T11:42:22.560Z,4.72
2023-01-02T11:45:11.748Z,4.80
2023-01-02T11:47:51.257Z,4.77
2023-01-02T11:50:34.096Z,4.78
2023-01-02T11:53:25.217Z,4.80
2023-01-02T11:56:33.606Z,4.81
2023-01-02T11:59:12.057Z,4.91
2023-01-02T12:01:50.443Z,4.90
2023-01-02T12:04:17.566Z,4.93
2023-01-02T12:07:04.836Z,5.02
2023-01-02T12:09:51.978Z,5.01
2023-01-02T12:12:30.966Z,4.90
2023-01-02T12:15:18.698Z,4.95
2023-01-02T12:18:26.617Z,4.84
2023-01-02T12:21:19.452Z,4.98
2023-01-02T12:24:07.409Z,4.92
2023-01-02T12:26:55.106Z,4.97
2023-01-02T12:29:47.177Z,5.04
2023-01-02T12:32:42.296Z,5.08
2023-01-02T12:35:37.285Z,5.06
2023-01-02T12:38:07.864Z,4.97
2023-01-02T12:41:02.248Z,4.99
2023-01-02T12:43:50.113Z,4.85
2023-01-02T12:46:32.179Z,4.96
2023-01-02T12:49:14.243Z,4.90
2023-01-02T12:52:03.614Z,4.88
2023-01-02T12:54:46.503Z,4.70
2023-01-02T12:57:34.590Z,4.75
2023-01-02T13:00:39.495Z,4.77
2023-01-02T13:03:06.297Z,4.88
2023-01-02T13:05:44.390Z,4.74
2023-01-02T13:08:20.125Z,4.84
2023-01-02T13:10:47.561Z,4.67
2023-01-02T13:13:15.569Z,4.78
2023-01-02T13:15:47.745Z,4.69
2023-01-02T13:18:21.879Z,4.73
2023-01-02T13:20:58.613Z,4.69
2023-01-02T13:23:34.823Z,4.74
2023-01-02T13:26:11.195Z,4.67
2023-01-02T13:28:42.508Z,4.66
2023-01-02T13:31:45.415Z,4.68
2023-01-02T13:34:05.713Z,4.65
2023-01-02T13:36:46.221Z,4.59
2023-01-02T13:39:23.982Z,4.47
2023-01-02T13:42:15.109Z,4.56
2023-01-02T13:44:46.376Z,4.63
2023-01-02T13:47:24.463Z,4.61
2023-01-02T13:50:17.419Z,4.62
2023-01-02T13:53:02.567Z,4.56
2023-01-02T13:55:35.077Z,4.48
2023-01-02T13:58:18.459Z,4.58
2023-01-02T14:00:54.327Z,4.68
2023-01-02T14:03:24.128Z,4.62
2023-01-02T14:06:00.263Z,4.55
2023-01-02T14:08:34.751Z,4.54
2023-01-02T14:11:55.536Z,4.55
2023-01-02T14:14:27.572Z,4.48
2023-01-02T14:17:12.077Z,4.47
2023-01-02T14:19:39.676Z,4.47
2023-01-02T14:22:14.096Z,4.49
2023-01-02T14:24:46.493Z,4.59
2023-01-02T14:27:16.273Z,4.59
2023-01-02T14:29:52.495Z,4.47
2023-01-02T14:32:44.288Z,4.47
2023-01-02T14:35:11.061Z,4.46
2023-01-02T14:37:43.520Z,4.44
2023-01-02T14:40:38.193Z,4.49
2023-01-02T14:43:31.484Z,4.39
2023-01-02T14:46:04.674Z,4.56
2023-01-02T14:48:58.577Z,4.51
2023-01-02T14:51:37.051Z,4.46
2023-01-02T14:54:17.166Z,4.48
2023-01-02T14:56:48.864Z,4.66
2023-01-02T14:59:41.205Z,4.55
2023-01-02T15:02:18.097Z,4.62
2023-01-02T15:04:55.722Z,4.69
2023-01-02T15:07:36.962Z,4.67
2023-01-02T15:10:20.169Z,4.73
2023-01-02T15:13:06.730Z,4.64
2023-01-02T15:15:40.710Z,4.45
2023-01-02T15:18:28.744Z,4.40
2023-01-02T15:21:02.811Z,4.45
2023-01-02T15:23:30.113Z,4.39
2023-01-02T15:26:32.378Z,4.48
2023-01-02T15:28:43.948Z,4.55
2023-01-02T15:31:16.041Z,4.53
2023-01-02T15:33:43.067Z,4.53
2023-01-02T15:36:33.020Z,4.60
2023-01-02T15:39:26.806Z,4.74
2023-01-02T15:41:57.481Z,4.76
2023-01-02T15:44:46.231Z,4.68
2023-01-02T15:47:14.792Z,4.72
2023-01-02T15:49:44.057Z,4.66
2023-01-02T15:52:30.637Z,4.65
2023-01-02T15:54:58.674Z,4.51
2023-01-02T15:57:28.609Z,4.29
2023-01-02T15:59:56.224Z,4.30
2023-01-02T16:02:44.626Z,4.28
2023-01-02T16:05:20.803Z,4.23
2023-01-02T16:07:55.817Z,4.15
2023-01-02T16:10:26.207Z,4.05
2023-01-02T16:13:34.589Z,3.99
2023-01-02T16:16:16.158Z,4.04
2023-01-02T16:18:49.432Z,4.05
2023-01-02T16:21:17.334Z,4.18
2023-01-02T16:23:52.064Z,4.19
2023-01-02T16:26:23.908Z,4.23
2023-01-02T16:28:51.450Z,4.21
2023-01-02T16:31:22.047Z,4.27
2023-01-02T16:33:49.162Z,4.04
2023-01-02T16:36:15.963Z,4.15
2023-01-02T16:38:53.151Z,4.07
2023-01-02T16:41:37.319Z,4.22
2023-01-02T16:44:12.448Z,4.10
2023-01-02T16:46:40.735Z,4.03
2023-01-02T16:49:11.629Z,4.23
2023-01-02T16:51:42.866Z,4.31
2023-01-02T16:54:13.975Z,4.30
2023-01-02T16:56:41.518Z,4.27
2023-01-02T16:59:08.374Z,4.11
2023-01-02T17:01:35.978Z,4.05
2023-01-02T17:04:02.912Z,3.91
2023-01-02T17:06:29.844Z,3.87
2023-01-02T17:08:56.568Z,3.82
2023-01-02T17:11:24.825Z,3.84
2023-01-02T17:13:52.837Z,3.86
2023-01-02T17:16:20.224Z,3.80
2023-01-02T17:18:47.370Z,3.79
2023-01-02T17:21:14.671Z,3.76
2023-01-02T17:23:41.671Z,3.92
2023-01-02T17:26:08.537Z,3.85
2023-01-02T17:28:35.414Z,3.81
2023-01-02T17:31:02.327Z,3.88
2023-01-02T17:33:29.156Z,3.78
2023-01-02T17:35:56.905Z,3.92
2023-01-02T17:38:23.718Z,3.98
2023-01-02T17:40:56.783Z,3.94
2023-01-02T17:43:23.627Z,3.91
2023-01-02T17:45:50.688Z,3.97
2023-01-02T17:48:23.901Z,4.00
2023-01-02T17:50:52.919Z,4.10
2023-01-02T17:53:21.157Z,3.93
2023-01-02T17:56:20.665Z,3.83
2023-01-02T17:58:39.981Z,3.85
2023-01-02T18:01:06.993Z,3.91
2023-01-02T18:03:33.931Z,4.01
2023-01-02T18:06:05.370Z,3.93
2023-01-02T18:08:32.703Z,3.78
2023-01-02T18:10:59.704Z,3.79
2023-01-02T18:13:28.544Z,3.78
2023-01-02T18:15:55.497Z,3.79
2023-01-02T18:18:25.065Z,3.82
2023-01-02T18:20:52.932Z,4.00
2023-01-02T18:23:19.817Z,3.84
2023-01-02T18:25:46.885Z,3.94
2023-01-02T18:28:24.710Z,3.87
2023-01-02T18:30:58.829Z,4.02
2023-01-02T18:33:28.159Z,3.88
2023-01-02T18:36:06.261Z,3.71
2023-01-02T18:38:37.916Z,3.90
2023-01-02T18:41:17.930Z,3.94
2023-01-02T18:43:46.254Z,3.77
2023-01-02T18:46:19.390Z,3.90
2023-01-02T18:48:46.871Z,3.86
2023-01-02T18:51:20.415Z,3.82
2023-01-02T18:53:52.755Z,3.76
2023-01-02T18:56:27.661Z,3.79
2023-01-02T18:59:06.951Z,3.98
2023-01-02T19:01:41.140Z,3.80
2023-01-02T19:04:20.529Z,3.81
2023-01-02T19:06:53.968Z,3.78
2023-01-02T19:09:25.695Z,3.83
2023-01-02T19:12:39.487Z,3.77
2023-01-02T19:15:43.924Z,3.86
2023-01-02T19:18:13.971Z,3.90
2023-01-02T19:20:45.100Z,3.95
2023-01-02T19:23:48.018Z,4.00
2023-01-02T19:26:33.200Z,3.93
2023-01-02T19:29:09.609Z,4.00
2023-01-02T19:32:00.353Z,3.90
2023-01-02T19:34:40.556Z,3.77
2023-01-02T19:37:13.875Z,3.69
2023-01-02T19:40:06.610Z,3.80
2023-01-02T19:42:35.532Z,3.58
2023-01-02T19:45:04.672Z,3.54
2023-01-02T19:47:35.113Z,3.43
2023-01-02T19:50:02.973Z,3.46
2023-01-02T19:52:30.383Z,3.30
2023-01-02T19:54:59.578Z,3.44
2023-01-02T19:57:27.562Z,3.59
2023-01-02T19:59:56.371Z,3.45
2023-01-02T20:02:25.895Z,3.60
2023-01-02T20:04:55.864Z,3.54
2023-01-02T20:07:25.201Z,3.61
2023-01-02T20:09:53.448Z,3.59
2023-01-02T20:12:30.430Z,3.71
2023-01-02T20:14:59.455Z,3.74
2023-01-02T20:17:29.037Z,3.66
2023-01-02T20:19:57.425Z,3.81
2023-01-02T20:22:24.689Z,3.63
2023-01-02T20:24:53.296Z,3.57
2023-01-02T20:27:21.128Z,3.68
2023-01-02T20:29:50.091Z,3.67
2023-01-02T20:32:18.415Z,3.59
2023-01-02T20:34:47.177Z,3.51
2023-01-02T20:37:15.962Z,3.50
2023-01-02T20:39:46.526Z,3.58
2023-01-02T20:42:13.977Z,3.58
2023-01-02T20:44:41.378Z,3.59
2023-01-02T20:47:09.064Z,3.52
2023-01-02T20:49:37.030Z,3.44
2023-01-02T20:52:04.900Z,3.46
2023-01-02T20:54:33.948Z,3.51
2023-01-02T20:57:03.065Z,3.49
2023-01-02T20:59:30.962Z,3.53
2023-01-02T21:01:58.641Z,3.41
2023-01-02T21:04:34.169Z,3.44
2023-01-02T21:07:05.934Z,3.33
2023-01-02T21:09:33.657Z,3.23
2023-01-02T21:12:01.143Z,3.33
2023-01-02T21:14:32.452Z,3.44
2023-01-02T21:17:04.286Z,3.43
2023-01-02T21:19:31.530Z,3.58
2023-01-02T21:21:59.055Z,3.54
2023-01-02T21:24:26.374Z,3.47
2023-01-02T21:26:53.887Z,3.60
2023-01-02T21:29:20.939Z,3.68
2023-01-02T21:31:48.440Z,3.64
2023-01-02T21:34:15.450Z,3.62
2023-01-02T21:36:42.376Z,3.44
2023-01-02T21:39:10.082Z,3.29
2023-01-02T21:41:55.965Z,3.28
2023-01-02T21:44:22.686Z,3.17
2023-01-02T21:46:49.477Z,3.25
2023-01-02T21:49:16.287Z,3.36
2023-01-02T21:51:42.992Z,3.32
2023-01-02T21:54:09.774Z,3.40
2023-01-02T21:56:36.493Z,3.41
2023-01-02T21:59:03.276Z,3.19
2023-01-02T22:01:30.189Z,3.19
2023-01-02T22:03:57.521Z,3.13
2023-01-02T22:06:24.417Z,2.82
2023-01-02T22:08:51.285Z,2.90
2023-01-02T22:11:36.920Z,2.79
2023-01-02T22:14:03.675Z,2.80
2023-01-02T22:16:31.232Z,2.72
2023-01-02T22:18:58.072Z,2.76
2023-01-02T22:21:24.867Z,2.53
2023-01-02T22:23:51.665Z,2.92
2023-01-02T22:26:18.579Z,2.87
2023-01-02T22:28:45.348Z,2.86
2023-01-02T22:31:12.169Z,2.90
2023-01-02T22:33:39.243Z,2.95
2023-01-02T22:36:06.603Z,2.91
2023-01-02T22:38:34.030Z,2.85
2023-01-02T22:41:02.456Z,2.83
2023-01-02T22:43:34.668Z,2.80
2023-01-02T22:46:06.559Z,2.69
2023-01-02T22:48:38.243Z,2.84
2023-01-02T22:51:09.132Z,2.76
2023-01-02T22:53:37.605Z,2.90
2023-01-02T22:56:19.323Z,3.02
2023-01-02T22:58:47.599Z,2.96
2023-01-02T23:01:33.485Z,3.04
2023-01-02T23:04:00.747Z,2.99
2023-01-02T23:06:27.916Z,3.02
2023-01-02T23:08:55.019Z,3.03
2023-01-02T23:11:22.987Z,2.99
2023-01-02T23:13:56.074Z,2.92
2023-01-02T23:16:42.224Z,2.90
2023-01-02T23:19:14.969Z,2.83
2023-01-02T23:21:44.566Z,2.91
2023-01-02T23:24:13.189Z,2.89
2023-01-02T23:26:43.260Z,2.89
2023-01-02T23:29:11.081Z,2.91
2023-01-02T23:31:40.395Z,2.97
2023-01-02T23:34:08.822Z,2.93
2023-01-02T23:36:37.164Z,2.92
2023-01-02T23:39:06.221Z,2.92
2023-01-02T23:41:33.546Z,2.77
2023-01-02T23:44:00.368Z,2.58
2023-01-02T23:46:27.313Z,2.75
2023-01-02T23:48:54.083Z,2.91
2023-01-02T23:51:20.890Z,2.79
2023-01-02T23:53:48.189Z,2.65
2023-01-02T23:56:24.193Z,2.65
2023-01-02T23:58:53.556Z,2.56
